Walhalla, ND

3:11 AM CDT on September 02, 2014 (GMT -0500)
Walhalla | Change Station
CLOSE
Current Station
Airport
Location: Walhalla,
Elevation: 951 ft
Nearby Weather Stations

Elev 951 ft 48.94 °N, 97.90 °W | Updated 16 minutes ago

Clear
Clear
55 °F
Feels Like 55 °F
N
7
Wind Variable Wind from West

Today
High -- | Low -- °F
--% Chance of Precip.
Yesterday
High -- | Low -- °F
Precip. -- in
6:49 AM 8:11 PM
Waxing Crescent, 49% visible
Pressure 29.74 in
Visibility 10.0 miles
Clouds Clear
Dew Point 48 °F
Humidity 77%
Rainfall 0.00 in
Snow Depth Not available.
UV 0 out of 12
Pollen 9.30 out of 12
Air Quality Not available.
Flu Activity Not available.
METAR K96D 020755Z AUTO 27006KT 10SM CLR 13/09 A2974 RMK AO2

More Conditions Fewer Conditions

Pressure 29.74 in
Visibility 10.0 miles
Clouds Clear
Dew Point 48 °F
Humidity 77%
Rainfall 0.00 in
Snow Depth Not available.
UV 0 out of 12
Pollen 9.30 out of 12
Air Quality Not available.
Flu Activity Not available.
METAR K96D 020755Z AUTO 27006KT 10SM CLR 13/09 A2974 RMK AO2

More Conditions Fewer Conditions

10-Day Weather Forecast

Almanac

Astronomy

Sep. 02, 2014 Rise Set
Actual Time 6:49 AM CDT 8:11 PM CDT
Civil Twilight 6:16 AM CDT 8:44 PM CDT
Nautical Twilight 5:37 AM CDT 9:23 PM CDT
Astronomical Twilight 4:54 AM CDT 10:06 PM CDT
Moon 3:11 PM CDT No Moon Set
Length of Visible Light 14h 27m
Length of Day
13h 21m
Tomorrow will be 3m 29s shorter.
Waxing Crescent, 49% of the Moon is Illuminated
Today
Waxing Crescent
Sep 2
First Quarter
Sep 8
Full
Sep 15
Last Quarter
Sep 24
New

Today's Extremes

State Highs State Lows

Community

WunderPhotos

Upload Photos

1,749,587 photos uploaded!

WunderBlogs® & News

Nearby

Snow Depth

Station Depth Elevation
No new snow has been reported.

Earthquake Activity

City Distance Mag. Time & Date
No recent earthquake activity has been reported nearby.
Minimum magnitude displayed is 2.5.

Coastal Water Temperatures

Place Temperature
No Stations Reporting

Nearby Weather Stations